createdAt,value
2023-01-04T00:01:47.648Z,97579.19
2023-01-04T00:04:21.293Z,97572.42
2023-01-04T00:06:54.854Z,97591.21
2023-01-04T00:09:28.292Z,97637.94
2023-01-04T00:12:01.733Z,97637.01
2023-01-04T00:14:35.069Z,97654.09
2023-01-04T00:17:08.572Z,97660.03
2023-01-04T00:19:41.961Z,97682.99
2023-01-04T00:22:15.393Z,97686.03
2023-01-04T00:24:49.101Z,97699.62
2023-01-04T00:27:22.794Z,97711.45
2023-01-04T00:29:56.549Z,97725.03
2023-01-04T00:32:30.139Z,97736.01
2023-01-04T00:35:03.728Z,97745.87
2023-01-04T00:37:37.639Z,97760.11
2023-01-04T00:40:13.579Z,97772.77
2023-01-04T00:42:47.234Z,97781.23
2023-01-04T00:45:21.053Z,97773.33
2023-01-04T00:47:54.621Z,97796.69
2023-01-04T00:50:28.338Z,97807.30
2023-01-04T00:53:01.794Z,97817.16
2023-01-04T00:55:35.199Z,97834.83
2023-01-04T00:58:09.135Z,97838.99
2023-01-04T01:00:42.792Z,97836.39
2023-01-04T01:03:16.457Z,97843.03
2023-01-04T01:05:49.892Z,97855.80
2023-01-04T01:08:26.578Z,97862.52
2023-01-04T01:11:05.049Z,97873.45
2023-01-04T01:13:39.533Z,97876.02
2023-01-04T01:16:15.356Z,97878.58
2023-01-04T01:18:49.069Z,97894.81
2023-01-04T01:21:24.281Z,97900.91
2023-01-04T01:23:58.485Z,97907.77
2023-01-04T01:26:33.762Z,97914.61
2023-01-04T01:29:07.453Z,97922.38
2023-01-04T01:31:42.186Z,97910.38
2023-01-04T01:34:15.766Z,97926.52
2023-01-04T01:36:49.283Z,97932.38
2023-01-04T01:39:22.723Z,97943.28
2023-01-04T01:41:56.083Z,97951.73
2023-01-04T01:45:03.093Z,97958.39
2023-01-04T01:47:41.822Z,97976.14
2023-01-04T01:50:26.246Z,97977.52
2023-01-04T01:53:02.088Z,97974.14
2023-01-04T01:55:36.736Z,97981.87
2023-01-04T01:58:12.888Z,97996.33
2023-01-04T02:00:46.344Z,98015.06
2023-01-04T02:03:23.346Z,98018.53
2023-01-04T02:05:59.867Z,98016.91
2023-01-04T02:08:33.484Z,98039.06
2023-01-04T02:11:07.539Z,98043.32
2023-01-04T02:14:00.932Z,98055.31
2023-01-04T02:16:51.284Z,98058.69
2023-01-04T02:19:54.780Z,98069.59
2023-01-04T02:23:29.373Z,98081.59
2023-01-04T02:26:33.135Z,98087.57
2023-01-04T02:29:30.550Z,98089.91
2023-01-04T02:32:03.913Z,98100.67
2023-01-04T02:34:39.998Z,98110.77
2023-01-04T02:37:18.371Z,98105.52
2023-01-04T02:39:56.100Z,98116.59
2023-01-04T02:42:51.339Z,98124.03
2023-01-04T02:45:27.172Z,98136.02
2023-01-04T02:48:23.372Z,98145.51
2023-01-04T02:50:58.678Z,98149.87
2023-01-04T02:53:34.789Z,98154.98
2023-01-04T02:56:14.925Z,98166.95
2023-01-04T02:59:01.959Z,98169.64
2023-01-04T03:01:59.853Z,98165.67
2023-01-04T03:05:00.565Z,98182.73
2023-01-04T03:07:38.679Z,98189.41
2023-01-04T03:10:16.000Z,98200.46
2023-01-04T03:12:52.271Z,98200.52
2023-01-04T03:15:28.117Z,98203.08
2023-01-04T03:18:04.436Z,98221.00
2023-01-04T03:20:37.976Z,98233.88
2023-01-04T03:23:30.482Z,98234.09
2023-01-04T03:26:23.785Z,98229.11
2023-01-04T03:29:17.647Z,98240.51
2023-01-04T03:32:11.493Z,98227.41
2023-01-04T03:35:02.544Z,98249.61
2023-01-04T03:37:39.027Z,98251.31
2023-01-04T03:40:38.757Z,98267.52
2023-01-04T03:43:33.000Z,98277.09
2023-01-04T03:46:26.637Z,98283.94
2023-01-04T03:49:03.556Z,98284.64
2023-01-04T03:51:38.817Z,98288.14
2023-01-04T03:54:15.250Z,98301.00
2023-01-04T03:56:50.123Z,98302.61
2023-01-04T03:59:24.232Z,98304.36
2023-01-04T04:01:57.615Z,98306.17
2023-01-04T04:04:48.420Z,98307.81
2023-01-04T04:07:39.463Z,98308.04
2023-01-04T04:10:12.795Z,98320.67
2023-01-04T04:12:48.131Z,98323.84
2023-01-04T04:15:21.630Z,98328.09
2023-01-04T04:17:57.170Z,98344.46
2023-01-04T04:20:34.397Z,98347.13
2023-01-04T04:23:09.259Z,98354.76
2023-01-04T04:25:42.394Z,98360.73
2023-01-04T04:28:15.731Z,98364.25
2023-01-04T04:30:51.792Z,98376.99
2023-01-04T04:33:25.107Z,98382.86
2023-01-04T04:35:58.463Z,98386.28
2023-01-04T04:38:32.179Z,98380.93
2023-01-04T04:41:28.708Z,98388.34
2023-01-04T04:44:02.551Z,98393.58
2023-01-04T04:46:35.597Z,98403.44
2023-01-04T04:49:10.190Z,98413.13
2023-01-04T04:51:45.035Z,98422.45
2023-01-04T04:54:21.039Z,98431.25
2023-01-04T04:56:54.350Z,98430.52
2023-01-04T04:59:27.823Z,98430.23
2023-01-04T05:02:01.411Z,98440.98
2023-01-04T05:04:36.106Z,98443.44
2023-01-04T05:07:12.596Z,98441.03
2023-01-04T05:09:45.000Z,98445.26
2023-01-04T05:12:36.329Z,98450.47
2023-01-04T05:15:11.478Z,98461.50
2023-01-04T05:17:45.089Z,98460.70
2023-01-04T05:20:19.342Z,98474.42
2023-01-04T05:22:52.640Z,98479.66
2023-01-04T05:25:26.236Z,98486.41
2023-01-04T05:27:59.696Z,98488.97
2023-01-04T05:30:50.464Z,98483.79
2023-01-04T05:33:26.005Z,98495.62
2023-01-04T05:36:01.066Z,98497.84
2023-01-04T05:38:35.145Z,98495.28
2023-01-04T05:41:10.848Z,98499.31
2023-01-04T05:43:44.376Z,98505.17
2023-01-04T05:46:17.895Z,98510.22
2023-01-04T05:48:51.320Z,98512.72
2023-01-04T05:51:24.951Z,98524.54
2023-01-04T05:53:58.265Z,98536.59
2023-01-04T05:56:31.805Z,98535.00
2023-01-04T05:59:05.241Z,98542.44
2023-01-04T06:01:38.495Z,98557.79
2023-01-04T06:04:11.974Z,98560.41
2023-01-04T06:06:45.468Z,98549.38
2023-01-04T06:09:19.156Z,98554.56
2023-01-04T06:11:52.591Z,98554.56
2023-01-04T06:14:27.603Z,98563.27
2023-01-04T06:17:01.637Z,98558.14
2023-01-04T06:19:35.193Z,98563.13
2023-01-04T06:22:09.007Z,98570.64
2023-01-04T06:24:42.496Z,98576.59
2023-01-04T06:27:16.209Z,98573.07
2023-01-04T06:29:49.496Z,98586.52
2023-01-04T06:32:22.878Z,98588.95
2023-01-04T06:34:56.192Z,98593.83
2023-01-04T06:37:29.726Z,98597.13
2023-01-04T06:40:03.710Z,98595.36
2023-01-04T06:42:47.354Z,98586.76
2023-01-04T06:45:21.500Z,98601.37
2023-01-04T06:47:54.955Z,98596.32
2023-01-04T06:50:28.347Z,98608.38
2023-01-04T06:53:01.898Z,98612.46
2023-01-04T06:55:38.167Z,98617.58
2023-01-04T06:58:11.894Z,98617.58
2023-01-04T07:00:46.460Z,98627.01
2023-01-04T07:03:21.985Z,98629.70
2023-01-04T07:05:55.569Z,98640.83
2023-01-04T07:08:29.202Z,98643.45
2023-01-04T07:11:03.262Z,98653.67
2023-01-04T07:13:39.580Z,98656.30
2023-01-04T07:16:13.842Z,98651.32
2023-01-04T07:18:47.558Z,98652.48
2023-01-04T07:21:21.131Z,98662.72
2023-01-04T07:23:56.543Z,98669.59
2023-01-04T07:26:31.641Z,98672.81
2023-01-04T07:29:18.547Z,98682.60
2023-01-04T07:31:53.913Z,98686.69
2023-01-04T07:34:29.540Z,98689.03
2023-01-04T07:37:03.415Z,98704.20
2023-01-04T07:39:37.821Z,98703.27
2023-01-04T07:42:11.775Z,98699.29
2023-01-04T07:44:47.837Z,98715.28
2023-01-04T07:47:22.316Z,98710.09
2023-01-04T07:49:55.799Z,98718.31
2023-01-04T07:52:29.639Z,98727.81
2023-01-04T07:55:03.392Z,98722.63
2023-01-04T07:57:37.132Z,98739.08
2023-01-04T08:00:13.403Z,98731.66
2023-01-04T08:02:51.731Z,98733.45
2023-01-04T08:05:28.498Z,98736.66
2023-01-04T08:08:03.662Z,98727.16
2023-01-04T08:10:37.387Z,98738.22
2023-01-04T08:13:10.567Z,98737.89
2023-01-04T08:15:44.315Z,98742.28
2023-01-04T08:18:20.475Z,98749.38
2023-01-04T08:20:58.628Z,98754.41
2023-01-04T08:23:30.403Z,98750.27
2023-01-04T08:26:08.827Z,98752.17
2023-01-04T08:28:42.468Z,98759.98
2023-01-04T08:31:18.533Z,98755.92
2023-01-04T08:33:53.294Z,98762.48
2023-01-04T08:36:28.481Z,98759.34
2023-01-04T08:39:05.176Z,98761.17
2023-01-04T08:41:57.311Z,98763.66
2023-01-04T08:44:17.929Z,98759.34
2023-01-04T08:46:53.055Z,98760.45
2023-01-04T08:49:26.758Z,98765.88
2023-01-04T08:52:01.797Z,98765.41
2023-01-04T08:54:35.432Z,98770.66
2023-01-04T08:57:08.848Z,98771.45
2023-01-04T08:59:42.591Z,98776.56
2023-01-04T09:02:23.206Z,98768.89
2023-01-04T09:04:59.617Z,98766.20
2023-01-04T09:07:34.668Z,98765.88
2023-01-04T09:10:10.173Z,98762.60
2023-01-04T09:12:45.676Z,98761.73
2023-01-04T09:15:19.891Z,98749.89
2023-01-04T09:18:29.417Z,98750.78
2023-01-04T09:20:29.096Z,98755.80
2023-01-04T09:23:02.860Z,98756.52
2023-01-04T09:25:36.200Z,98753.48
2023-01-04T09:28:09.995Z,98761.53
2023-01-04T09:30:43.697Z,98764.23
2023-01-04T09:33:17.310Z,98761.19
2023-01-04T09:35:50.746Z,98763.47
2023-01-04T09:38:24.548Z,98762.74
2023-01-04T09:41:01.335Z,98759.02
2023-01-04T09:43:38.209Z,98757.31
2023-01-04T09:46:14.426Z,98754.17
2023-01-04T09:48:49.466Z,98751.71
2023-01-04T09:51:25.969Z,98756.17
2023-01-04T09:54:02.153Z,98751.98
2023-01-04T09:56:41.148Z,98752.64
2023-01-04T09:59:17.703Z,98751.91
2023-01-04T10:01:55.657Z,98752.08
2023-01-04T10:04:33.056Z,98755.86
2023-01-04T10:07:06.915Z,98750.95
2023-01-04T10:09:40.593Z,98747.64
2023-01-04T10:12:20.753Z,98760.28
2023-01-04T10:15:00.964Z,98758.86
2023-01-04T10:18:43.429Z,98761.10
2023-01-04T10:23:46.021Z,98743.86
2023-01-04T10:26:21.278Z,98740.20
2023-01-04T10:29:15.440Z,98741.56
2023-01-04T10:31:52.669Z,98744.69
2023-01-04T10:34:29.986Z,98741.95
2023-01-04T10:37:07.929Z,98736.05
2023-01-04T10:39:41.737Z,98736.38
2023-01-04T10:42:20.959Z,98732.70
2023-01-04T10:45:05.073Z,98726.75
2023-01-04T10:47:39.889Z,98715.53
2023-01-04T10:50:17.607Z,98717.98
2023-01-04T10:52:51.298Z,98718.50
2023-01-04T10:55:28.636Z,98730.14
2023-01-04T10:58:04.814Z,98735.39
2023-01-04T11:00:41.715Z,98728.09
2023-01-04T11:03:19.407Z,98724.56
2023-01-04T11:05:52.715Z,98734.66
2023-01-04T11:08:29.605Z,98724.49
2023-01-04T11:11:05.893Z,98725.89
2023-01-04T11:13:39.682Z,98722.45
2023-01-04T11:16:14.000Z,98721.95
2023-01-04T11:18:50.096Z,98730.16
2023-01-04T11:21:28.311Z,98728.64
2023-01-04T11:24:30.196Z,98730.47
2023-01-04T11:26:42.162Z,98736.16
2023-01-04T11:29:20.033Z,98740.14
2023-01-04T11:31:57.191Z,98744.53
2023-01-04T11:34:48.914Z,98750.20
2023-01-04T11:37:31.228Z,98749.73
2023-01-04T11:40:23.600Z,98742.78
2023-01-04T11:43:13.529Z,98743.32
2023-01-04T11:46:00.957Z,98744.94
2023-01-04T11:48:43.545Z,98746.59
2023-01-04T11:51:25.538Z,98745.33
2023-01-04T11:54:01.667Z,98735.49
2023-01-04T11:56:36.601Z,98747.85
2023-01-04T11:59:25.194Z,98744.17
2023-01-04T12:01:55.796Z,98742.52
2023-01-04T12:07:09.154Z,98739.14
2023-01-04T12:09:43.215Z,98748.56
2023-01-04T12:12:16.799Z,98744.44
2023-01-04T12:14:52.226Z,98741.31
2023-01-04T12:17:29.260Z,98746.57
2023-01-04T12:20:06.244Z,98743.94
2023-01-04T12:22:41.281Z,98737.00
2023-01-04T12:25:26.116Z,98743.53
2023-01-04T12:28:00.074Z,98745.30
2023-01-04T12:30:43.446Z,98743.53
2023-01-04T12:33:40.665Z,98744.51
2023-01-04T12:36:16.087Z,98740.12
2023-01-04T12:42:30.221Z,98746.09
2023-01-04T12:45:28.237Z,98748.64
2023-01-04T12:48:22.123Z,98734.90
2023-01-04T12:51:32.289Z,98745.97
2023-01-04T12:54:04.668Z,98749.23
2023-01-04T12:57:22.873Z,98743.42
2023-01-04T13:00:01.644Z,98744.47
2023-01-04T13:02:39.715Z,98742.48
2023-01-04T13:08:16.232Z,98751.72
2023-01-04T13:10:52.532Z,98736.48
2023-01-04T13:13:31.921Z,98739.77
2023-01-04T13:16:17.982Z,98736.33
2023-01-04T13:18:54.133Z,98744.95
2023-01-04T13:21:31.477Z,98741.43
2023-01-04T13:24:08.363Z,98743.34
2023-01-04T13:26:46.005Z,98741.43
2023-01-04T13:29:22.924Z,98734.56
2023-01-04T13:31:59.346Z,98737.94
2023-01-04T13:34:34.908Z,98741.28
2023-01-04T13:37:14.712Z,98733.54
2023-01-04T13:39:50.522Z,98716.62
2023-01-04T13:42:43.586Z,98733.36
2023-01-04T13:48:30.807Z,98739.85
2023-01-04T13:51:05.736Z,98742.52
2023-01-04T13:53:39.287Z,98740.14
2023-01-04T13:56:20.801Z,98729.67
2023-01-04T13:58:54.622Z,98732.30
2023-01-04T14:01:31.047Z,98720.52
2023-01-04T14:04:06.186Z,98732.48
2023-01-04T14:06:44.402Z,98725.63
2023-01-04T14:09:20.835Z,98728.25
2023-01-04T14:12:09.739Z,98720.86
2023-01-04T14:14:49.974Z,98720.30
2023-01-04T14:17:26.933Z,98714.48
2023-01-04T14:20:01.174Z,98712.90
2023-01-04T14:22:43.518Z,98714.97
2023-01-04T14:25:43.550Z,98708.43
2023-01-04T14:28:28.713Z,98710.34
2023-01-04T14:31:18.161Z,98698.22
2023-01-04T14:33:54.419Z,98698.22
2023-01-04T14:36:31.169Z,98696.78
2023-01-04T14:39:31.185Z,98691.67
2023-01-04T14:42:05.323Z,98691.03
2023-01-04T14:44:40.087Z,98683.55
2023-01-04T14:47:14.116Z,98681.80
2023-01-04T14:49:47.470Z,98681.80
2023-01-04T14:52:24.792Z,98674.70
2023-01-04T14:54:59.322Z,98671.32
2023-01-04T14:57:35.353Z,98674.77
2023-01-04T15:00:19.475Z,98673.98
2023-01-04T15:02:53.002Z,98671.58
2023-01-04T15:05:26.289Z,98664.78
2023-01-04T15:07:59.690Z,98659.74
2023-01-04T15:10:32.994Z,98659.92
2023-01-04T15:13:06.133Z,98660.06
2023-01-04T15:15:42.690Z,98653.38
2023-01-04T15:18:17.577Z,98649.38
2023-01-04T15:20:51.204Z,98646.25
2023-01-04T15:23:24.416Z,98642.83
2023-01-04T15:25:58.060Z,98636.75
2023-01-04T15:28:31.495Z,98630.98
2023-01-04T15:31:09.896Z,98626.84
2023-01-04T15:33:44.039Z,98618.53
2023-01-04T15:36:23.718Z,98612.38
2023-01-04T15:38:57.500Z,98608.17
2023-01-04T15:41:48.312Z,98604.83
2023-01-04T15:44:21.946Z,98607.45
2023-01-04T15:46:58.250Z,98601.44
2023-01-04T15:49:34.848Z,98591.09
2023-01-04T15:52:08.918Z,98582.70
2023-01-04T15:54:42.437Z,98574.17
2023-01-04T15:57:16.488Z,98565.67
2023-01-04T15:59:50.067Z,98564.43
2023-01-04T16:02:23.767Z,98567.44
2023-01-04T16:04:57.734Z,98570.95
2023-01-04T16:07:36.294Z,98569.41
2023-01-04T16:10:08.235Z,98564.39
2023-01-04T16:12:48.697Z,98561.11
2023-01-04T16:15:22.734Z,98561.31
2023-01-04T16:17:56.507Z,98545.84
2023-01-04T16:20:30.738Z,98533.73
2023-01-04T16:23:04.319Z,98538.67
2023-01-04T16:25:38.129Z,98530.08
2023-01-04T16:28:11.940Z,98531.01
2023-01-04T16:30:47.775Z,98521.02
2023-01-04T16:33:23.135Z,98521.09
2023-01-04T16:36:03.142Z,98504.06
2023-01-04T16:38:38.891Z,98501.61
2023-01-04T16:41:14.826Z,98504.30
2023-01-04T16:43:49.694Z,98495.04
2023-01-04T16:46:26.693Z,98490.19
2023-01-04T16:49:03.468Z,98491.09
2023-01-04T16:51:40.466Z,98484.28
2023-01-04T16:54:16.813Z,98488.30
2023-01-04T16:56:50.878Z,98471.20
2023-01-04T16:59:24.071Z,98478.88
2023-01-04T17:02:02.508Z,98476.32
2023-01-04T17:04:36.001Z,98470.22
2023-01-04T17:07:09.248Z,98469.55
2023-01-04T17:09:42.338Z,98457.80
2023-01-04T17:15:14.811Z,98451.85
2023-01-04T17:17:26.577Z,98448.50
2023-01-04T17:20:00.149Z,98439.02
2023-01-04T17:22:34.791Z,98432.23
2023-01-04T17:25:10.070Z,98432.37
2023-01-04T17:27:43.969Z,98399.24
2023-01-04T17:30:18.050Z,98411.31
2023-01-04T17:32:51.771Z,98417.32
2023-01-04T17:35:28.954Z,98412.34
2023-01-04T17:38:02.660Z,98415.91
2023-01-04T17:40:36.287Z,98410.19
2023-01-04T17:43:09.944Z,98403.19
2023-01-04T17:45:43.856Z,98400.70
2023-01-04T17:48:18.871Z,98388.81
2023-01-04T17:50:52.130Z,98385.42
2023-01-04T17:53:25.972Z,98387.98
2023-01-04T17:56:04.543Z,98381.27
2023-01-04T17:58:38.723Z,98378.70
2023-01-04T18:01:14.457Z,98365.13
2023-01-04T18:03:49.537Z,98361.61
2023-01-04T18:06:26.519Z,98368.36
2023-01-04T18:09:00.974Z,98358.99
2023-01-04T18:11:35.340Z,98376.21
2023-01-04T18:14:10.162Z,98351.59
2023-01-04T18:16:57.775Z,98349.78
2023-01-04T18:19:34.513Z,98363.64
2023-01-04T18:22:07.851Z,98361.67
2023-01-04T18:24:40.912Z,98348.15
2023-01-04T18:27:24.865Z,98340.48
2023-01-04T18:29:50.714Z,98354.16
2023-01-04T18:32:25.017Z,98354.34
2023-01-04T18:35:03.544Z,98328.03
2023-01-04T18:37:36.461Z,98333.23
2023-01-04T18:40:16.462Z,98328.98
2023-01-04T18:42:51.355Z,98347.06
2023-01-04T18:45:24.871Z,98331.59
2023-01-04T18:47:59.564Z,98324.87
2023-01-04T18:50:34.379Z,98328.42
2023-01-04T18:53:07.744Z,98319.94
2023-01-04T18:55:42.880Z,98319.14
2023-01-04T18:58:16.180Z,98316.70
2023-01-04T19:00:52.226Z,98304.86
2023-01-04T19:03:25.029Z,98308.43
2023-01-04T19:06:00.478Z,98301.62
2023-01-04T19:08:34.375Z,98306.67
2023-01-04T19:11:09.940Z,98304.23
2023-01-04T19:13:43.646Z,98293.09
2023-01-04T19:16:17.171Z,98301.77
2023-01-04T19:18:50.482Z,98297.72
2023-01-04T19:21:23.640Z,98303.69
2023-01-04T19:23:56.867Z,98305.50
2023-01-04T19:26:30.018Z,98300.56
2023-01-04T19:29:03.160Z,98275.06
2023-01-04T19:31:36.362Z,98287.97
2023-01-04T19:34:11.179Z,98287.22
2023-01-04T19:36:45.915Z,98269.30
2023-01-04T19:39:19.031Z,98283.11
2023-01-04T19:41:52.472Z,98265.25
2023-01-04T19:44:25.899Z,98268.66
2023-01-04T19:46:59.212Z,98277.34
2023-01-04T19:49:32.519Z,98273.88
2023-01-04T19:52:06.059Z,98269.62
2023-01-04T19:54:39.744Z,98272.23
2023-01-04T19:57:13.901Z,98265.50
2023-01-04T19:59:47.249Z,98258.69
2023-01-04T20:02:21.775Z,98251.06
2023-01-04T20:04:55.210Z,98257.13
2023-01-04T20:07:28.531Z,98254.62
2023-01-04T20:10:01.831Z,98241.77
2023-01-04T20:12:35.080Z,98250.25
2023-01-04T20:15:11.929Z,98247.69
2023-01-04T20:17:45.260Z,98255.52
2023-01-04T20:20:19.374Z,98252.76
2023-01-04T20:22:52.657Z,98251.90
2023-01-04T20:25:26.091Z,98247.75
2023-01-04T20:27:59.983Z,98246.78
2023-01-04T20:30:35.922Z,98263.95
2023-01-04T20:33:14.185Z,98259.62
2023-01-04T20:35:49.277Z,98245.38
2023-01-04T20:38:23.954Z,98243.62
2023-01-04T20:41:04.096Z,98235.14
2023-01-04T20:43:37.522Z,98243.62
2023-01-04T20:46:14.796Z,98241.13
2023-01-04T20:48:48.976Z,98236.06
2023-01-04T20:51:24.188Z,98228.52
2023-01-04T20:54:02.376Z,98226.88
2023-01-04T20:56:37.765Z,98234.69
2023-01-04T20:59:11.427Z,98233.64
2023-01-04T21:01:45.674Z,98231.98
2023-01-04T21:04:21.011Z,98228.62
2023-01-04T21:06:54.383Z,98229.43
2023-01-04T21:09:28.024Z,98218.28
2023-01-04T21:12:06.875Z,98201.41
2023-01-04T21:14:38.457Z,98216.77
2023-01-04T21:17:12.112Z,98209.09
2023-01-04T21:19:50.307Z,98218.38
2023-01-04T21:22:27.690Z,98211.51
2023-01-04T21:25:01.103Z,98206.53
2023-01-04T21:27:35.581Z,98215.02
2023-01-04T21:30:10.999Z,98201.22
2023-01-04T21:32:46.067Z,98196.99
2023-01-04T21:35:19.657Z,98194.43
2023-01-04T21:37:53.070Z,98198.66
2023-01-04T21:40:30.530Z,98196.05
2023-01-04T21:43:04.105Z,98192.55
2023-01-04T21:45:41.763Z,98184.05
2023-01-04T21:48:13.743Z,98186.61
2023-01-04T21:50:46.870Z,98183.20
2023-01-04T21:53:20.295Z,98187.37
2023-01-04T21:56:01.115Z,98182.20
2023-01-04T21:58:34.733Z,98186.52
2023-01-04T22:01:13.674Z,98181.29
2023-01-04T22:03:47.180Z,98180.45
2023-01-04T22:06:22.786Z,98167.65
2023-01-04T22:08:58.440Z,98158.25
2023-01-04T22:11:32.124Z,98175.22
2023-01-04T22:14:05.644Z,98161.63
2023-01-04T22:16:38.939Z,98158.17
2023-01-04T22:19:14.299Z,98158.25
2023-01-04T22:21:47.645Z,98164.23
2023-01-04T22:24:21.018Z,98163.38
2023-01-04T22:26:54.515Z,98148.92
2023-01-04T22:29:28.512Z,98156.70
2023-01-04T22:32:02.035Z,98159.87
2023-01-04T22:34:35.589Z,98155.50
2023-01-04T22:37:09.162Z,98158.58
2023-01-04T22:39:42.607Z,98159.28
2023-01-04T22:42:16.123Z,98152.41
2023-01-04T22:44:50.825Z,98154.92
2023-01-04T22:47:24.647Z,98149.05
2023-01-04T22:49:57.871Z,98149.05
2023-01-04T22:52:34.881Z,98138.00
2023-01-04T22:55:10.051Z,98147.24
2023-01-04T22:57:44.530Z,98140.42
2023-01-04T23:00:19.259Z,98138.76
2023-01-04T23:02:52.733Z,98147.30
2023-01-04T23:05:26.277Z,98132.08
2023-01-04T23:07:59.736Z,98132.08
2023-01-04T23:10:33.053Z,98138.76
2023-01-04T23:13:07.696Z,98127.82
2023-01-04T23:15:41.363Z,98143.23
2023-01-04T23:18:14.728Z,98137.30
2023-01-04T23:20:54.623Z,98139.91
2023-01-04T23:23:30.195Z,98147.53
2023-01-04T23:26:08.765Z,98162.78
2023-01-04T23:28:42.865Z,98167.91
2023-01-04T23:31:21.054Z,98168.01
2023-01-04T23:33:56.307Z,98173.47
2023-01-04T23:36:32.194Z,98161.72
2023-01-04T23:39:07.796Z,98167.65
2023-01-04T23:41:48.209Z,98167.84
2023-01-04T23:44:26.136Z,98168.84
2023-01-04T23:47:01.202Z,98162.06
2023-01-04T23:49:36.090Z,98158.59
2023-01-04T23:52:10.316Z,98161.16
2023-01-04T23:54:43.950Z,98168.12
2023-01-04T23:57:17.198Z,98162.95
2023-01-04T23:59:50.651Z,98167.19
